sensor_id;sensor_type;location;lat;lon;timestamp;pressure;altitude;pressure_sealevel;temperature;humidity
55733;BME280;41637;52.364;9.910;2023-02-23T00:01:57;100427.42;;;6.54;100.00
55733;BME280;41637;52.364;9.910;2023-02-23T00:04:26;100428.67;;;6.54;100.00
55733;BME280;41637;52.364;9.910;2023-02-23T00:06:54;100430.70;;;6.55;100.00
55733;BME280;41637;52.364;9.910;2023-02-23T00:09:22;100431.19;;;6.55;100.00
55733;BME280;41637;52.364;9.910;2023-02-23T00:11:55;100433.52;;;6.56;100.00
55733;BME280;41637;52.364;9.910;2023-02-23T00:14:26;100433.13;;;6.57;100.00
55733;BME280;41637;52.364;9.910;2023-02-23T00:16:55;100431.23;;;6.58;100.00
55733;BME280;41637;52.364;9.910;2023-02-23T00:19:22;100433.04;;;6.58;100.00
55733;BME280;41637;52.364;9.910;2023-02-23T00:21:51;100432.61;;;6.58;100.00
55733;BME280;41637;52.364;9.910;2023-02-23T00:24:18;100430.71;;;6.60;100.00
55733;BME280;41637;52.364;9.910;2023-02-23T00:26:46;100435.10;;;6.61;100.00
55733;BME280;41637;52.364;9.910;2023-02-23T00:29:15;100432.67;;;6.63;100.00
55733;BME280;41637;52.364;9.910;2023-02-23T00:31:43;100427.58;;;6.65;100.00
55733;BME280;41637;52.364;9.910;2023-02-23T00:34:13;100425.11;;;6.66;100.00
55733;BME280;41637;52.364;9.910;2023-02-23T00:36:40;100427.14;;;6.67;100.00
55733;BME280;41637;52.364;9.910;2023-02-23T00:39:09;100422.80;;;6.69;100.00
55733;BME280;41637;52.364;9.910;2023-02-23T00:41:55;100427.27;;;6.71;100.00
55733;BME280;41637;52.364;9.910;2023-02-23T00:44:23;100427.40;;;6.73;100.00
55733;BME280;41637;52.364;9.910;2023-02-23T00:46:50;100430.30;;;6.74;100.00
55733;BME280;41637;52.364;9.910;2023-02-23T00:49:20;100429.29;;;6.75;100.00
55733;BME280;41637;52.364;9.910;2023-02-23T00:51:48;100425.88;;;6.78;100.00
55733;BME280;41637;52.364;9.910;2023-02-23T00:54:15;100430.66;;;6.79;100.00
55733;BME280;41637;52.364;9.910;2023-02-23T00:56:42;100432.18;;;6.80;100.00
55733;BME280;41637;52.364;9.910;2023-02-23T00:59:10;100431.96;;;6.80;100.00
55733;BME280;41637;52.364;9.910;2023-02-23T01:01:38;100435.86;;;6.80;100.00
55733;BME280;41637;52.364;9.910;2023-02-23T01:04:07;100435.01;;;6.80;100.00
55733;BME280;41637;52.364;9.910;2023-02-23T01:06:35;100436.98;;;6.79;100.00
55733;BME280;41637;52.364;9.910;2023-02-23T01:09:13;100439.70;;;6.80;100.00
55733;BME280;41637;52.364;9.910;2023-02-23T01:11:41;100440.69;;;6.81;100.00
55733;BME280;41637;52.364;9.910;2023-02-23T01:14:12;100436.05;;;6.82;100.00
55733;BME280;41637;52.364;9.910;2023-02-23T01:16:38;100444.83;;;6.83;100.00
55733;BME280;41637;52.364;9.910;2023-02-23T01:19:06;100440.88;;;6.84;100.00
55733;BME280;41637;52.364;9.910;2023-02-23T01:21:38;100439.38;;;6.83;100.00
55733;BME280;41637;52.364;9.910;2023-02-23T01:24:07;100440.64;;;6.83;100.00
55733;BME280;41637;52.364;9.910;2023-02-23T01:26:37;100444.21;;;6.83;100.00
55733;BME280;41637;52.364;9.910;2023-02-23T01:29:07;100445.67;;;6.82;100.00
55733;BME280;41637;52.364;9.910;2023-02-23T01:31:35;100449.10;;;6.83;100.00
55733;BME280;41637;52.364;9.910;2023-02-23T01:34:04;100446.17;;;6.84;100.00
55733;BME280;41637;52.364;9.910;2023-02-23T01:36:36;100447.99;;;6.85;100.00
55733;BME280;41637;52.364;9.910;2023-02-23T01:39:05;100448.85;;;6.87;100.00
55733;BME280;41637;52.364;9.910;2023-02-23T01:41:35;100451.36;;;6.88;100.00
55733;BME280;41637;52.364;9.910;2023-02-23T01:46:41;100450.77;;;6.88;100.00
55733;BME280;41637;52.364;9.910;2023-02-23T01:49:14;100452.59;;;6.88;100.00
55733;BME280;41637;52.364;9.910;2023-02-23T01:51:45;100453.70;;;6.87;100.00
55733;BME280;41637;52.364;9.910;2023-02-23T01:54:18;100457.76;;;6.87;100.00
55733;BME280;41637;52.364;9.910;2023-02-23T01:56:48;100454.27;;;6.87;100.00
55733;BME280;41637;52.364;9.910;2023-02-23T01:59:36;100456.45;;;6.88;100.00
55733;BME280;41637;52.364;9.910;2023-02-23T02:02:04;100456.39;;;6.90;100.00
55733;BME280;41637;52.364;9.910;2023-02-23T02:04:37;100457.67;;;6.91;100.00
55733;BME280;41637;52.364;9.910;2023-02-23T02:07:19;100454.92;;;6.93;100.00
55733;BME280;41637;52.364;9.910;2023-02-23T02:09:50;100457.05;;;6.95;100.00
55733;BME280;41637;52.364;9.910;2023-02-23T02:15:10;100457.73;;;6.95;100.00
55733;BME280;41637;52.364;9.910;2023-02-23T02:18:01;100462.14;;;6.93;100.00
55733;BME280;41637;52.364;9.910;2023-02-23T02:26:48;100458.52;;;6.90;100.00
55733;BME280;41637;52.364;9.910;2023-02-23T02:32:30;100459.32;;;6.95;100.00
55733;BME280;41637;52.364;9.910;2023-02-23T02:41:03;100454.45;;;7.05;100.00
55733;BME280;41637;52.364;9.910;2023-02-23T02:46:19;100454.92;;;7.12;100.00
55733;BME280;41637;52.364;9.910;2023-02-23T02:49:21;100451.96;;;7.16;100.00
55733;BME280;41637;52.364;9.910;2023-02-23T02:52:13;100451.02;;;7.21;100.00
55733;BME280;41637;52.364;9.910;2023-02-23T02:55:00;100451.23;;;7.24;100.00
55733;BME280;41637;52.364;9.910;2023-02-23T02:57:29;100451.61;;;7.27;100.00
55733;BME280;41637;52.364;9.910;2023-02-23T02:59:58;100450.52;;;7.29;100.00
55733;BME280;41637;52.364;9.910;2023-02-23T03:02:44;100449.45;;;7.32;100.00
55733;BME280;41637;52.364;9.910;2023-02-23T03:05:44;100452.20;;;7.37;100.00
55733;BME280;41637;52.364;9.910;2023-02-23T03:08:49;100456.11;;;7.41;100.00
55733;BME280;41637;52.364;9.910;2023-02-23T03:12:00;100459.05;;;7.45;100.00
55733;BME280;41637;52.364;9.910;2023-02-23T03:21:17;100450.77;;;7.52;100.00
55733;BME280;41637;52.364;9.910;2023-02-23T03:24:26;100451.70;;;7.55;100.00
55733;BME280;41637;52.364;9.910;2023-02-23T03:30:33;100453.48;;;7.58;100.00
55733;BME280;41637;52.364;9.910;2023-02-23T03:33:31;100459.17;;;7.59;100.00
55733;BME280;41637;52.364;9.910;2023-02-23T03:36:24;100460.15;;;7.58;100.00
55733;BME280;41637;52.364;9.910;2023-02-23T03:39:29;100464.80;;;7.58;100.00
55733;BME280;41637;52.364;9.910;2023-02-23T03:42:18;100463.80;;;7.59;100.00
55733;BME280;41637;52.364;9.910;2023-02-23T03:45:10;100463.11;;;7.60;100.00
55733;BME280;41637;52.364;9.910;2023-02-23T03:47:58;100464.02;;;7.61;100.00
55733;BME280;41637;52.364;9.910;2023-02-23T03:50:51;100459.44;;;7.61;100.00
55733;BME280;41637;52.364;9.910;2023-02-23T03:54:00;100461.48;;;7.62;100.00
55733;BME280;41637;52.364;9.910;2023-02-23T03:56:50;100464.79;;;7.64;100.00
55733;BME280;41637;52.364;9.910;2023-02-23T03:59:41;100465.08;;;7.65;100.00
55733;BME280;41637;52.364;9.910;2023-02-23T04:02:29;100466.97;;;7.67;100.00
55733;BME280;41637;52.364;9.910;2023-02-23T04:05:17;100466.94;;;7.69;100.00
55733;BME280;41637;52.364;9.910;2023-02-23T04:08:06;100465.38;;;7.72;100.00
55733;BME280;41637;52.364;9.910;2023-02-23T04:11:01;100465.40;;;7.75;100.00
55733;BME280;41637;52.364;9.910;2023-02-23T04:13:53;100463.55;;;7.78;100.00
55733;BME280;41637;52.364;9.910;2023-02-23T04:16:23;100456.93;;;7.79;100.00
55733;BME280;41637;52.364;9.910;2023-02-23T04:18:51;100460.03;;;7.81;100.00
55733;BME280;41637;52.364;9.910;2023-02-23T04:21:17;100458.95;;;7.83;100.00
55733;BME280;41637;52.364;9.910;2023-02-23T04:23:45;100457.92;;;7.83;100.00
55733;BME280;41637;52.364;9.910;2023-02-23T04:26:12;100459.11;;;7.83;100.00
55733;BME280;41637;52.364;9.910;2023-02-23T04:28:39;100456.20;;;7.82;100.00
55733;BME280;41637;52.364;9.910;2023-02-23T04:31:07;100457.92;;;7.81;100.00
55733;BME280;41637;52.364;9.910;2023-02-23T04:33:34;100451.88;;;7.80;100.00
55733;BME280;41637;52.364;9.910;2023-02-23T04:36:01;100449.50;;;7.79;100.00
55733;BME280;41637;52.364;9.910;2023-02-23T04:38:28;100452.56;;;7.79;100.00
55733;BME280;41637;52.364;9.910;2023-02-23T04:40:56;100453.55;;;7.77;100.00
55733;BME280;41637;52.364;9.910;2023-02-23T04:43:24;100454.91;;;7.76;100.00
55733;BME280;41637;52.364;9.910;2023-02-23T04:45:51;100455.08;;;7.74;100.00
55733;BME280;41637;52.364;9.910;2023-02-23T04:48:18;100455.52;;;7.73;100.00
55733;BME280;41637;52.364;9.910;2023-02-23T04:50:45;100456.35;;;7.72;100.00
55733;BME280;41637;52.364;9.910;2023-02-23T04:53:13;100457.11;;;7.72;100.00
55733;BME280;41637;52.364;9.910;2023-02-23T04:55:40;100461.03;;;7.73;100.00
55733;BME280;41637;52.364;9.910;2023-02-23T04:58:08;100464.85;;;7.75;100.00
55733;BME280;41637;52.364;9.910;2023-02-23T05:00:40;100468.25;;;7.78;100.00
55733;BME280;41637;52.364;9.910;2023-02-23T05:03:07;100467.71;;;7.80;100.00
55733;BME280;41637;52.364;9.910;2023-02-23T05:05:34;100466.54;;;7.84;100.00
55733;BME280;41637;52.364;9.910;2023-02-23T05:08:01;100468.67;;;7.87;100.00
55733;BME280;41637;52.364;9.910;2023-02-23T05:10:28;100469.19;;;7.91;100.00
55733;BME280;41637;52.364;9.910;2023-02-23T05:12:56;100470.35;;;7.95;100.00
55733;BME280;41637;52.364;9.910;2023-02-23T05:15:23;100470.81;;;7.97;100.00
55733;BME280;41637;52.364;9.910;2023-02-23T05:17:51;100471.49;;;7.99;100.00
55733;BME280;41637;52.364;9.910;2023-02-23T05:20:19;100474.13;;;8.04;100.00
55733;BME280;41637;52.364;9.910;2023-02-23T05:22:47;100476.74;;;8.08;100.00
55733;BME280;41637;52.364;9.910;2023-02-23T05:25:14;100472.70;;;8.10;100.00
55733;BME280;41637;52.364;9.910;2023-02-23T05:27:41;100470.63;;;8.13;100.00
55733;BME280;41637;52.364;9.910;2023-02-23T05:30:08;100472.36;;;8.18;100.00
55733;BME280;41637;52.364;9.910;2023-02-23T05:32:35;100473.67;;;8.20;100.00
55733;BME280;41637;52.364;9.910;2023-02-23T05:35:03;100474.54;;;8.22;100.00
55733;BME280;41637;52.364;9.910;2023-02-23T05:37:30;100471.04;;;8.23;100.00
55733;BME280;41637;52.364;9.910;2023-02-23T05:39:57;100471.00;;;8.24;100.00
55733;BME280;41637;52.364;9.910;2023-02-23T05:42:24;100473.52;;;8.25;100.00
55733;BME280;41637;52.364;9.910;2023-02-23T05:44:52;100471.83;;;8.26;100.00
55733;BME280;41637;52.364;9.910;2023-02-23T05:47:19;100470.51;;;8.27;100.00
55733;BME280;41637;52.364;9.910;2023-02-23T05:49:46;100469.09;;;8.27;100.00
55733;BME280;41637;52.364;9.910;2023-02-23T05:52:13;100471.49;;;8.24;100.00
55733;BME280;41637;52.364;9.910;2023-02-23T05:54:40;100469.55;;;8.21;100.00
55733;BME280;41637;52.364;9.910;2023-02-23T05:57:07;100470.86;;;8.18;100.00
55733;BME280;41637;52.364;9.910;2023-02-23T05:59:34;100471.95;;;8.16;100.00
55733;BME280;41637;52.364;9.910;2023-02-23T06:02:02;100470.94;;;8.17;100.00
55733;BME280;41637;52.364;9.910;2023-02-23T06:04:31;100471.15;;;8.20;100.00
55733;BME280;41637;52.364;9.910;2023-02-23T06:06:58;100473.39;;;8.24;100.00
55733;BME280;41637;52.364;9.910;2023-02-23T06:09:25;100478.61;;;8.30;100.00
55733;BME280;41637;52.364;9.910;2023-02-23T06:11:52;100476.41;;;8.35;100.00
55733;BME280;41637;52.364;9.910;2023-02-23T06:14:19;100480.93;;;8.43;100.00
55733;BME280;41637;52.364;9.910;2023-02-23T06:16:47;100479.63;;;8.50;100.00
55733;BME280;41637;52.364;9.910;2023-02-23T06:19:14;100481.33;;;8.54;100.00
55733;BME280;41637;52.364;9.910;2023-02-23T06:21:41;100483.21;;;8.58;100.00
55733;BME280;41637;52.364;9.910;2023-02-23T06:24:08;100482.64;;;8.61;99.94
55733;BME280;41637;52.364;9.910;2023-02-23T06:26:35;100486.54;;;8.61;99.75
55733;BME280;41637;52.364;9.910;2023-02-23T06:29:02;100489.79;;;8.59;99.56
55733;BME280;41637;52.364;9.910;2023-02-23T06:31:29;100494.35;;;8.57;99.70
55733;BME280;41637;52.364;9.910;2023-02-23T06:33:56;100494.75;;;8.57;99.72
55733;BME280;41637;52.364;9.910;2023-02-23T06:36:23;100497.88;;;8.57;99.67
55733;BME280;41637;52.364;9.910;2023-02-23T06:38:50;100500.77;;;8.56;99.78
55733;BME280;41637;52.364;9.910;2023-02-23T06:41:21;100501.58;;;8.57;99.64
55733;BME280;41637;52.364;9.910;2023-02-23T06:43:47;100502.61;;;8.60;99.87
55733;BME280;41637;52.364;9.910;2023-02-23T06:46:15;100504.81;;;8.60;99.87
55733;BME280;41637;52.364;9.910;2023-02-23T06:48:47;100505.77;;;8.61;99.82
55733;BME280;41637;52.364;9.910;2023-02-23T06:51:14;100509.08;;;8.61;99.58
55733;BME280;41637;52.364;9.910;2023-02-23T06:53:48;100504.88;;;8.61;99.68
55733;BME280;41637;52.364;9.910;2023-02-23T06:56:39;100509.17;;;8.64;99.68
55733;BME280;41637;52.364;9.910;2023-02-23T06:59:16;100509.38;;;8.67;99.72
55733;BME280;41637;52.364;9.910;2023-02-23T07:01:51;100511.75;;;8.69;99.52
55733;BME280;41637;52.364;9.910;2023-02-23T07:04:32;100511.69;;;8.71;99.68
55733;BME280;41637;52.364;9.910;2023-02-23T07:07:30;100510.82;;;8.73;99.54
55733;BME280;41637;52.364;9.910;2023-02-23T07:10:03;100512.01;;;8.75;99.44
55733;BME280;41637;52.364;9.910;2023-02-23T07:16:24;100519.60;;;8.78;99.30
55733;BME280;41637;52.364;9.910;2023-02-23T07:23:01;100525.75;;;8.88;99.30
55733;BME280;41637;52.364;9.910;2023-02-23T07:26:15;100527.30;;;8.91;99.16
55733;BME280;41637;52.364;9.910;2023-02-23T07:28:58;100529.08;;;8.91;98.61
55733;BME280;41637;52.364;9.910;2023-02-23T07:31:29;100529.21;;;8.93;98.79
55733;BME280;41637;52.364;9.910;2023-02-23T07:33:56;100532.55;;;8.95;98.60
55733;BME280;41637;52.364;9.910;2023-02-23T07:36:23;100533.38;;;8.95;98.62
55733;BME280;41637;52.364;9.910;2023-02-23T07:38:50;100535.95;;;8.96;98.60
55733;BME280;41637;52.364;9.910;2023-02-23T07:41:17;100537.27;;;8.97;98.47
55733;BME280;41637;52.364;9.910;2023-02-23T07:43:45;100536.35;;;8.96;98.40
55733;BME280;41637;52.364;9.910;2023-02-23T07:46:12;100536.48;;;8.93;98.38
55733;BME280;41637;52.364;9.910;2023-02-23T07:48:41;100540.02;;;8.91;98.41
55733;BME280;41637;52.364;9.910;2023-02-23T07:51:12;100539.58;;;8.89;98.39
55733;BME280;41637;52.364;9.910;2023-02-23T07:53:39;100541.31;;;8.89;98.80
55733;BME280;41637;52.364;9.910;2023-02-23T07:56:08;100544.04;;;8.87;98.72
55733;BME280;41637;52.364;9.910;2023-02-23T07:58:40;100547.17;;;8.82;99.20
55733;BME280;41637;52.364;9.910;2023-02-23T08:01:08;100546.09;;;8.78;99.20
55733;BME280;41637;52.364;9.910;2023-02-23T08:03:35;100550.46;;;8.75;99.62
55733;BME280;41637;52.364;9.910;2023-02-23T08:06:02;100547.03;;;8.72;99.64
55733;BME280;41637;52.364;9.910;2023-02-23T08:08:29;100546.48;;;8.69;99.97
55733;BME280;41637;52.364;9.910;2023-02-23T08:11:03;100551.27;;;8.67;99.91
55733;BME280;41637;52.364;9.910;2023-02-23T08:13:31;100550.76;;;8.67;100.00
55733;BME280;41637;52.364;9.910;2023-02-23T08:15:58;100550.02;;;8.59;99.98
55733;BME280;41637;52.364;9.910;2023-02-23T08:18:25;100548.00;;;8.55;100.00
55733;BME280;41637;52.364;9.910;2023-02-23T08:21:00;100550.03;;;8.54;100.00
55733;BME280;41637;52.364;9.910;2023-02-23T08:23:31;100555.65;;;8.52;100.00
55733;BME280;41637;52.364;9.910;2023-02-23T08:25:59;100561.44;;;8.53;100.00
55733;BME280;41637;52.364;9.910;2023-02-23T08:28:27;100564.88;;;8.50;100.00
55733;BME280;41637;52.364;9.910;2023-02-23T08:30:54;100567.19;;;8.52;100.00
55733;BME280;41637;52.364;9.910;2023-02-23T08:33:21;100566.27;;;8.52;100.00
55733;BME280;41637;52.364;9.910;2023-02-23T08:35:48;100568.48;;;8.56;100.00
55733;BME280;41637;52.364;9.910;2023-02-23T08:38:15;100569.91;;;8.58;100.00
55733;BME280;41637;52.364;9.910;2023-02-23T08:40:43;100573.37;;;8.59;100.00
55733;BME280;41637;52.364;9.910;2023-02-23T08:43:11;100576.01;;;8.62;100.00
55733;BME280;41637;52.364;9.910;2023-02-23T08:45:38;100580.27;;;8.63;100.00
55733;BME280;41637;52.364;9.910;2023-02-23T08:48:06;100577.96;;;8.62;100.00
55733;BME280;41637;52.364;9.910;2023-02-23T08:50:33;100580.50;;;8.64;100.00
55733;BME280;41637;52.364;9.910;2023-02-23T08:53:01;100582.58;;;8.65;100.00
55733;BME280;41637;52.364;9.910;2023-02-23T08:55:27;100582.73;;;8.63;100.00
55733;BME280;41637;52.364;9.910;2023-02-23T08:57:54;100587.17;;;8.63;100.00
55733;BME280;41637;52.364;9.910;2023-02-23T09:00:22;100583.88;;;8.61;100.00
55733;BME280;41637;52.364;9.910;2023-02-23T09:02:49;100585.21;;;8.60;100.00
55733;BME280;41637;52.364;9.910;2023-02-23T09:05:16;100588.08;;;8.61;100.00
55733;BME280;41637;52.364;9.910;2023-02-23T09:07:44;100589.48;;;8.65;100.00
55733;BME280;41637;52.364;9.910;2023-02-23T09:10:18;100589.83;;;8.66;100.00
55733;BME280;41637;52.364;9.910;2023-02-23T09:12:45;100597.10;;;8.66;100.00
55733;BME280;41637;52.364;9.910;2023-02-23T09:15:12;100602.55;;;8.63;100.00
55733;BME280;41637;52.364;9.910;2023-02-23T09:17:39;100601.76;;;8.60;100.00
55733;BME280;41637;52.364;9.910;2023-02-23T09:20:10;100602.89;;;8.58;100.00
55733;BME280;41637;52.364;9.910;2023-02-23T09:22:39;100605.08;;;8.59;100.00
55733;BME280;41637;52.364;9.910;2023-02-23T09:25:07;100605.48;;;8.56;100.00
55733;BME280;41637;52.364;9.910;2023-02-23T09:27:35;100609.13;;;8.53;100.00
55733;BME280;41637;52.364;9.910;2023-02-23T09:30:03;100614.95;;;8.52;100.00
55733;BME280;41637;52.364;9.910;2023-02-23T09:32:30;100612.26;;;8.52;100.00
55733;BME280;41637;52.364;9.910;2023-02-23T09:34:57;100614.14;;;8.51;100.00
55733;BME280;41637;52.364;9.910;2023-02-23T09:37:24;100612.83;;;8.50;100.00
55733;BME280;41637;52.364;9.910;2023-02-23T09:39:51;100611.86;;;8.49;100.00
55733;BME280;41637;52.364;9.910;2023-02-23T09:42:43;100615.89;;;8.50;100.00
55733;BME280;41637;52.364;9.910;2023-02-23T09:45:18;100610.38;;;8.47;100.00
55733;BME280;41637;52.364;9.910;2023-02-23T09:50:30;100614.17;;;8.44;100.00
55733;BME280;41637;52.364;9.910;2023-02-23T09:53:04;100613.98;;;8.46;100.00
55733;BME280;41637;52.364;9.910;2023-02-23T09:55:32;100616.09;;;8.49;100.00
55733;BME280;41637;52.364;9.910;2023-02-23T09:58:05;100617.61;;;8.50;100.00
55733;BME280;41637;52.364;9.910;2023-02-23T10:00:39;100623.92;;;8.49;100.00
55733;BME280;41637;52.364;9.910;2023-02-23T10:03:16;100621.09;;;8.42;100.00
55733;BME280;41637;52.364;9.910;2023-02-23T10:05:51;100624.45;;;8.35;100.00
55733;BME280;41637;52.364;9.910;2023-02-23T10:08:29;100621.91;;;8.34;100.00
55733;BME280;41637;52.364;9.910;2023-02-23T10:11:13;100620.20;;;8.34;100.00
55733;BME280;41637;52.364;9.910;2023-02-23T10:14:03;100628.66;;;8.34;100.00
55733;BME280;41637;52.364;9.910;2023-02-23T10:17:00;100631.14;;;8.32;100.00
55733;BME280;41637;52.364;9.910;2023-02-23T10:20:02;100636.89;;;8.31;100.00
55733;BME280;41637;52.364;9.910;2023-02-23T10:22:33;100635.30;;;8.32;100.00
55733;BME280;41637;52.364;9.910;2023-02-23T10:25:11;100638.03;;;8.32;100.00
55733;BME280;41637;52.364;9.910;2023-02-23T10:27:47;100638.11;;;8.31;100.00
55733;BME280;41637;52.364;9.910;2023-02-23T10:30:22;100637.45;;;8.31;100.00
55733;BME280;41637;52.364;9.910;2023-02-23T10:32:58;100637.35;;;8.32;100.00
55733;BME280;41637;52.364;9.910;2023-02-23T10:35:27;100641.21;;;8.33;100.00
55733;BME280;41637;52.364;9.910;2023-02-23T10:37:55;100639.30;;;8.31;100.00
55733;BME280;41637;52.364;9.910;2023-02-23T10:40:25;100642.56;;;8.31;100.00
55733;BME280;41637;52.364;9.910;2023-02-23T10:42:56;100644.21;;;8.32;100.00
55733;BME280;41637;52.364;9.910;2023-02-23T10:45:25;100641.04;;;8.33;100.00
55733;BME280;41637;52.364;9.910;2023-02-23T10:48:07;100637.95;;;8.34;100.00
55733;BME280;41637;52.364;9.910;2023-02-23T10:50:38;100642.34;;;8.33;100.00
55733;BME280;41637;52.364;9.910;2023-02-23T10:53:14;100641.14;;;8.32;100.00
55733;BME280;41637;52.364;9.910;2023-02-23T10:55:43;100644.91;;;8.33;100.00
55733;BME280;41637;52.364;9.910;2023-02-23T10:58:14;100644.54;;;8.33;100.00
55733;BME280;41637;52.364;9.910;2023-02-23T11:00:57;100640.63;;;8.37;100.00
55733;BME280;41637;52.364;9.910;2023-02-23T11:03:46;100636.94;;;8.44;100.00
55733;BME280;41637;52.364;9.910;2023-02-23T11:06:27;100630.23;;;8.46;100.00
55733;BME280;41637;52.364;9.910;2023-02-23T11:08:54;100631.95;;;8.48;100.00
55733;BME280;41637;52.364;9.910;2023-02-23T11:11:26;100630.28;;;8.49;100.00
55733;BME280;41637;52.364;9.910;2023-02-23T11:13:56;100629.48;;;8.49;100.00
55733;BME280;41637;52.364;9.910;2023-02-23T11:16:25;100630.30;;;8.50;100.00
55733;BME280;41637;52.364;9.910;2023-02-23T11:18:59;100626.54;;;8.49;100.00
55733;BME280;41637;52.364;9.910;2023-02-23T11:21:33;100627.08;;;8.52;100.00
55733;BME280;41637;52.364;9.910;2023-02-23T11:24:21;100622.92;;;8.53;100.00
55733;BME280;41637;52.364;9.910;2023-02-23T11:26:52;100622.79;;;8.53;100.00
55733;BME280;41637;52.364;9.910;2023-02-23T11:29:28;100618.06;;;8.51;100.00
55733;BME280;41637;52.364;9.910;2023-02-23T11:31:59;100620.05;;;8.50;100.00
55733;BME280;41637;52.364;9.910;2023-02-23T11:34:36;100622.05;;;8.50;100.00
55733;BME280;41637;52.364;9.910;2023-02-23T11:37:21;100613.68;;;8.50;100.00
55733;BME280;41637;52.364;9.910;2023-02-23T11:39:59;100615.44;;;8.55;100.00
55733;BME280;41637;52.364;9.910;2023-02-23T11:42:31;100610.68;;;8.59;100.00
55733;BME280;41637;52.364;9.910;2023-02-23T11:45:06;100609.76;;;8.64;100.00
55733;BME280;41637;52.364;9.910;2023-02-23T11:47:44;100611.68;;;8.68;100.00
55733;BME280;41637;52.364;9.910;2023-02-23T11:50:25;100606.30;;;8.72;100.00
55733;BME280;41637;52.364;9.910;2023-02-23T11:52:57;100605.96;;;8.76;100.00
55733;BME280;41637;52.364;9.910;2023-02-23T11:55:28;100603.83;;;8.79;100.00
55733;BME280;41637;52.364;9.910;2023-02-23T11:58:26;100603.95;;;8.84;100.00
55733;BME280;41637;52.364;9.910;2023-02-23T12:03:24;100596.95;;;8.85;100.00
55733;BME280;41637;52.364;9.910;2023-02-23T12:05:54;100599.98;;;8.86;100.00
55733;BME280;41637;52.364;9.910;2023-02-23T12:08:32;100596.45;;;8.85;100.00
55733;BME280;41637;52.364;9.910;2023-02-23T12:11:03;100596.12;;;8.83;100.00
55733;BME280;41637;52.364;9.910;2023-02-23T12:13:39;100594.55;;;8.79;100.00
55733;BME280;41637;52.364;9.910;2023-02-23T12:16:25;100588.64;;;8.74;100.00
55733;BME280;41637;52.364;9.910;2023-02-23T12:21:52;100591.31;;;8.72;100.00
55733;BME280;41637;52.364;9.910;2023-02-23T12:27:14;100584.94;;;8.69;100.00
55733;BME280;41637;52.364;9.910;2023-02-23T12:32:21;100578.98;;;8.76;100.00
55733;BME280;41637;52.364;9.910;2023-02-23T12:35:03;100577.04;;;8.83;100.00
55733;BME280;41637;52.364;9.910;2023-02-23T12:37:46;100578.45;;;8.91;100.00
55733;BME280;41637;52.364;9.910;2023-02-23T12:40:27;100576.46;;;8.98;100.00
55733;BME280;41637;52.364;9.910;2023-02-23T12:45:45;100576.64;;;9.13;100.00
55733;BME280;41637;52.364;9.910;2023-02-23T12:48:24;100576.67;;;9.22;100.00
55733;BME280;41637;52.364;9.910;2023-02-23T12:50:55;100582.40;;;9.23;100.00
55733;BME280;41637;52.364;9.910;2023-02-23T12:56:03;100579.11;;;9.16;100.00
55733;BME280;41637;52.364;9.910;2023-02-23T13:01:20;100580.39;;;9.03;99.96
55733;BME280;41637;52.364;9.910;2023-02-23T13:13:37;100578.90;;;9.04;99.98
55733;BME280;41637;52.364;9.910;2023-02-23T13:18:40;100582.76;;;8.86;99.24
55733;BME280;41637;52.364;9.910;2023-02-23T13:24:00;100583.19;;;8.79;99.02
55733;BME280;41637;52.364;9.910;2023-02-23T13:31:48;100583.19;;;8.52;99.77
55733;BME280;41637;52.364;9.910;2023-02-23T13:34:24;100578.84;;;8.50;99.90
55733;BME280;41637;52.364;9.910;2023-02-23T13:36:52;100583.20;;;8.49;99.93
55733;BME280;41637;52.364;9.910;2023-02-23T13:45:00;100576.14;;;8.44;100.00
55733;BME280;41637;52.364;9.910;2023-02-23T13:47:47;100575.56;;;8.44;100.00
55733;BME280;41637;52.364;9.910;2023-02-23T13:52:53;100574.44;;;8.35;100.00
55733;BME280;41637;52.364;9.910;2023-02-23T13:58:12;100576.95;;;8.30;100.00
55733;BME280;41637;52.364;9.910;2023-02-23T14:00:41;100576.89;;;8.30;100.00
55733;BME280;41637;52.364;9.910;2023-02-23T14:03:26;100577.61;;;8.33;100.00
55733;BME280;41637;52.364;9.910;2023-02-23T14:05:58;100579.72;;;8.30;100.00
55733;BME280;41637;52.364;9.910;2023-02-23T14:08:36;100580.02;;;8.29;100.00
55733;BME280;41637;52.364;9.910;2023-02-23T14:11:04;100579.76;;;8.28;100.00
55733;BME280;41637;52.364;9.910;2023-02-23T14:13:59;100578.83;;;8.25;100.00
55733;BME280;41637;52.364;9.910;2023-02-23T14:16:26;100574.86;;;8.25;100.00
55733;BME280;41637;52.364;9.910;2023-02-23T14:19:29;100579.67;;;8.24;100.00
55733;BME280;41637;52.364;9.910;2023-02-23T14:22:04;100580.73;;;8.22;100.00
55733;BME280;41637;52.364;9.910;2023-02-23T14:24:31;100579.91;;;8.23;100.00
55733;BME280;41637;52.364;9.910;2023-02-23T14:27:21;100582.31;;;8.22;100.00
55733;BME280;41637;52.364;9.910;2023-02-23T14:32:44;100581.52;;;8.21;100.00
55733;BME280;41637;52.364;9.910;2023-02-23T14:38:02;100580.63;;;8.18;100.00
55733;BME280;41637;52.364;9.910;2023-02-23T14:40:37;100577.92;;;8.15;100.00
55733;BME280;41637;52.364;9.910;2023-02-23T14:43:30;100575.43;;;8.15;100.00
55733;BME280;41637;52.364;9.910;2023-02-23T14:45:58;100577.77;;;8.10;100.00
55733;BME280;41637;52.364;9.910;2023-02-23T14:48:26;100576.14;;;8.09;100.00
55733;BME280;41637;52.364;9.910;2023-02-23T14:51:10;100578.52;;;8.09;100.00
55733;BME280;41637;52.364;9.910;2023-02-23T14:53:42;100580.01;;;8.07;100.00
55733;BME280;41637;52.364;9.910;2023-02-23T14:56:17;100580.92;;;8.08;100.00
55733;BME280;41637;52.364;9.910;2023-02-23T14:58:49;100581.11;;;8.12;100.00
55733;BME280;41637;52.364;9.910;2023-02-23T15:01:37;100582.40;;;8.13;100.00
55733;BME280;41637;52.364;9.910;2023-02-23T15:06:32;100582.61;;;8.18;100.00
55733;BME280;41637;52.364;9.910;2023-02-23T15:08:59;100584.69;;;8.20;100.00